Time;durP1;ratioP1;P1;durP2;ratioP2;P2;SDS_P1;SDS_P2;PMS_P1;PMS_P2;Temp;Humidity;BMP_temperature;BMP_pressure;BME280_temperature;BME280_humidity;BME280_pressure;Samples;Min_cycle;Max_cycle;Signal;HPM_P1;HPM_P2
2024/03/27 00:02:53;;;;;;;5.03;2.70;;;5.20;99.90;;;;;;8316239;28;20026;-86
2024/03/27 00:06:54;;;;;;;10.02;3.05;;;5.20;99.90;;;;;;8301170;28;20030;-90
2024/03/27 00:10:54;;;;;;;3.58;2.42;;;5.20;99.90;;;;;;8300519;28;20029;-86
2024/03/27 00:14:55;;;;;;;4.07;2.45;;;5.30;99.90;;;;;;8320339;28;20033;-86
2024/03/27 00:18:55;;;;;;;3.83;2.67;;;5.30;99.90;;;;;;8317342;28;20025;-86
2024/03/27 00:22:56;;;;;;;5.18;2.75;;;5.20;99.90;;;;;;8309359;28;20513;-86
2024/03/27 00:26:56;;;;;;;4.93;2.50;;;5.30;99.90;;;;;;8320280;28;20029;-87
2024/03/27 00:30:57;;;;;;;7.50;3.38;;;5.20;99.90;;;;;;8300044;28;20132;-86
2024/03/27 00:34:58;;;;;;;4.90;2.88;;;5.30;99.90;;;;;;8317999;28;20056;-87
2024/03/27 00:38:59;;;;;;;5.32;3.05;;;5.30;99.90;;;;;;8316589;28;20040;-86
2024/03/27 00:42:59;;;;;;;6.03;2.72;;;5.30;99.90;;;;;;8299917;28;20025;-86
2024/03/27 00:47:00;;;;;;;4.60;2.60;;;5.30;99.90;;;;;;8317912;28;20032;-87
2024/03/27 00:51:01;;;;;;;6.47;3.00;;;5.30;99.90;;;;;;8289626;28;20028;-87
2024/03/27 00:55:01;;;;;;;6.45;2.88;;;5.30;99.90;;;;;;8314646;28;20018;-86
2024/03/27 00:59:02;;;;;;;4.50;2.85;;;5.20;99.90;;;;;;8314062;28;20080;-86
2024/03/27 01:03:03;;;;;;;7.13;3.17;;;5.10;99.90;;;;;;8307578;28;20029;-87
2024/03/27 01:07:03;;;;;;;4.25;2.90;;;5.10;99.90;;;;;;8314523;28;20029;-86
2024/03/27 01:11:04;;;;;;;3.35;2.13;;;4.90;99.90;;;;;;8299634;28;20425;-86
2024/03/27 01:15:06;;;;;;;4.45;2.90;;;4.80;99.90;;;;;;8316135;28;20021;-86
2024/03/27 01:19:07;;;;;;;5.88;2.92;;;4.80;99.90;;;;;;8316850;28;20026;-87
2024/03/27 01:23:07;;;;;;;8.32;2.88;;;4.80;99.90;;;;;;8319193;28;20063;-86
2024/03/27 01:27:08;;;;;;;7.65;2.83;;;4.80;99.90;;;;;;8315717;28;20037;-86
2024/03/27 01:31:08;;;;;;;5.30;2.67;;;4.70;99.90;;;;;;8309971;28;20033;-86
2024/03/27 01:35:09;;;;;;;4.95;2.25;;;4.60;99.90;;;;;;8302649;28;20060;-88
2024/03/27 01:39:10;;;;;;;3.90;2.53;;;4.40;99.90;;;;;;8307451;28;20044;-86
2024/03/27 01:43:10;;;;;;;4.22;2.33;;;4.40;99.90;;;;;;8296837;28;20387;-86
2024/03/27 01:47:11;;;;;;;4.25;2.40;;;4.20;99.90;;;;;;8295324;28;20022;-87
2024/03/27 01:51:12;;;;;;;3.95;2.33;;;4.10;99.90;;;;;;8299668;28;20041;-86
2024/03/27 01:55:13;;;;;;;7.15;2.92;;;4.00;99.90;;;;;;8311550;28;20031;-86
2024/03/27 01:59:13;;;;;;;4.43;2.60;;;4.00;99.90;;;;;;8295110;28;20026;-86
2024/03/27 02:03:14;;;;;;;4.03;2.75;;;4.10;99.90;;;;;;8305852;28;20124;-86
2024/03/27 02:07:15;;;;;;;5.40;2.72;;;3.90;99.90;;;;;;8304348;28;20057;-86
2024/03/27 02:11:16;;;;;;;5.35;2.92;;;3.80;99.90;;;;;;8316963;28;20033;-86
2024/03/27 02:15:18;;;;;;;4.65;2.55;;;3.70;99.90;;;;;;8311569;28;20113;-86
2024/03/27 02:19:18;;;;;;;4.43;2.53;;;3.80;99.90;;;;;;8299108;28;20032;-87
2024/03/27 02:23:22;;;;;;;7.35;2.88;;;3.70;99.90;;;;;;8303934;28;20037;-86
2024/03/27 02:27:23;;;;;;;5.60;2.65;;;3.70;99.90;;;;;;8315081;28;20040;-86
2024/03/27 02:31:23;;;;;;;4.18;2.10;;;3.70;99.90;;;;;;8306599;28;20057;-86
2024/03/27 02:35:24;;;;;;;4.68;2.67;;;3.70;99.90;;;;;;8294719;28;20439;-88
2024/03/27 02:39:25;;;;;;;4.63;2.30;;;3.60;99.90;;;;;;8300806;28;20015;-87
2024/03/27 02:43:25;;;;;;;4.00;2.42;;;3.50;99.90;;;;;;8298406;28;20026;-86
2024/03/27 02:47:26;;;;;;;4.15;2.40;;;3.50;99.90;;;;;;8296622;28;20122;-86
2024/03/27 02:51:26;;;;;;;6.13;2.50;;;3.70;99.90;;;;;;8314151;28;20391;-86
2024/03/27 02:55:27;;;;;;;2.92;1.95;;;3.60;99.90;;;;;;8301669;28;20021;-86
2024/03/27 02:59:28;;;;;;;3.25;2.08;;;3.40;99.90;;;;;;8311653;28;20014;-86
2024/03/27 03:03:28;;;;;;;4.95;2.20;;;3.70;99.90;;;;;;8300576;28;20034;-86
2024/03/27 03:07:29;;;;;;;7.72;2.30;;;3.70;99.90;;;;;;8314554;28;20026;-86
2024/03/27 03:11:29;;;;;;;2.97;1.80;;;3.50;99.90;;;;;;8298338;28;20025;-84
2024/03/27 03:15:30;;;;;;;7.20;2.30;;;3.30;99.90;;;;;;8324566;28;20532;-87
2024/03/27 03:19:30;;;;;;;3.72;1.90;;;3.10;99.90;;;;;;8320890;28;20026;-86
2024/03/27 03:23:32;;;;;;;6.35;2.30;;;3.10;99.90;;;;;;8304099;28;20033;-85
2024/03/27 03:27:33;;;;;;;2.97;2.03;;;3.20;99.90;;;;;;8304782;28;20116;-86
2024/03/27 03:31:34;;;;;;;3.90;2.55;;;3.10;99.90;;;;;;8301545;28;20065;-85
2024/03/27 03:35:34;;;;;;;3.63;2.17;;;3.10;99.90;;;;;;8305285;28;20550;-86
2024/03/27 03:39:35;;;;;;;2.85;1.80;;;3.00;99.90;;;;;;8308238;28;20045;-85
2024/03/27 03:43:36;;;;;;;3.03;1.83;;;2.80;99.90;;;;;;8303644;28;20517;-86
2024/03/27 03:47:36;;;;;;;4.00;1.80;;;2.70;99.90;;;;;;8312974;28;20409;-85
2024/03/27 03:51:37;;;;;;;4.13;2.28;;;2.70;99.90;;;;;;8302467;28;20025;-85
2024/03/27 03:55:40;;;;;;;3.03;1.67;;;2.80;99.90;;;;;;8316533;28;20010;-86
2024/03/27 03:59:41;;;;;;;4.72;2.40;;;2.90;99.90;;;;;;8300325;28;20026;-85
2024/03/27 04:03:41;;;;;;;3.60;2.10;;;2.80;99.90;;;;;;8313808;28;20108;-86
2024/03/27 04:07:42;;;;;;;3.42;2.08;;;2.80;99.90;;;;;;8322933;28;20113;-86
2024/03/27 04:11:42;;;;;;;2.83;1.92;;;2.50;99.90;;;;;;8302860;28;20018;-85
2024/03/27 04:15:43;;;;;;;4.05;2.05;;;2.30;99.90;;;;;;8316538;28;20033;-85
2024/03/27 04:19:44;;;;;;;3.33;2.00;;;2.30;99.90;;;;;;8301251;28;20022;-85
2024/03/27 04:23:45;;;;;;;3.33;1.92;;;2.20;99.90;;;;;;8301644;28;20017;-85
2024/03/27 04:27:45;;;;;;;4.38;2.08;;;2.20;99.90;;;;;;8300047;28;20022;-85
2024/03/27 04:31:48;;;;;;;5.18;1.77;;;2.20;99.90;;;;;;8308363;28;20051;-85
2024/03/27 04:35:48;;;;;;;3.00;2.17;;;2.00;99.90;;;;;;8297576;28;20022;-86
2024/03/27 04:39:49;;;;;;;3.30;1.90;;;2.00;99.90;;;;;;8302724;28;20536;-85
2024/03/27 04:43:49;;;;;;;6.13;2.00;;;2.10;99.90;;;;;;8300007;28;20034;-85
2024/03/27 04:47:50;;;;;;;3.80;2.08;;;2.20;99.90;;;;;;8298663;28;20030;-85
2024/03/27 04:51:50;;;;;;;3.42;1.95;;;2.20;99.90;;;;;;8299271;28;20494;-85
2024/03/27 04:55:57;;;;;;;6.03;1.98;;;2.20;99.90;;;;;;8300921;28;20033;-86
2024/03/27 04:59:58;;;;;;;3.97;2.10;;;2.20;99.90;;;;;;8312053;28;20026;-85
2024/03/27 05:03:58;;;;;;;4.70;1.85;;;2.20;99.90;;;;;;8299985;28;20604;-86
2024/03/27 05:07:59;;;;;;;3.00;2.17;;;2.30;99.90;;;;;;8317772;28;20044;-89
2024/03/27 05:12:00;;;;;;;3.28;2.30;;;2.50;99.90;;;;;;8298140;28;20510;-86
2024/03/27 05:16:01;;;;;;;5.85;2.13;;;2.70;99.90;;;;;;8294838;28;20022;-87
2024/03/27 05:20:06;;;;;;;3.63;2.28;;;2.90;99.90;;;;;;8317701;28;20032;-87
2024/03/27 05:24:08;;;;;;;4.63;2.58;;;2.70;99.90;;;;;;8314705;28;20018;-86
2024/03/27 05:28:08;;;;;;;6.38;2.55;;;3.30;99.90;;;;;;8317227;28;20046;-86
2024/03/27 05:32:09;;;;;;;3.55;1.67;;;3.00;99.90;;;;;;8306172;28;20106;-87
2024/03/27 05:36:09;;;;;;;1.67;1.48;;;3.30;99.90;;;;;;8307970;28;20018;-86
2024/03/27 05:40:10;;;;;;;3.75;1.88;;;3.40;99.90;;;;;;8311233;28;20026;-87
2024/03/27 05:44:12;;;;;;;3.95;2.20;;;3.20;99.90;;;;;;8310755;28;20100;-85
2024/03/27 05:48:12;;;;;;;5.03;2.20;;;3.00;99.90;;;;;;8302896;28;20482;-86
2024/03/27 05:52:13;;;;;;;4.47;2.13;;;3.00;99.90;;;;;;8305527;28;20030;-86
2024/03/27 05:56:13;;;;;;;3.13;1.98;;;3.00;99.90;;;;;;8299552;28;20022;-86
2024/03/27 06:00:14;;;;;;;6.57;2.42;;;3.10;99.90;;;;;;8314130;28;20524;-86
2024/03/27 06:04:15;;;;;;;4.20;2.50;;;3.30;99.90;;;;;;8302128;28;20107;-86
2024/03/27 06:08:15;;;;;;;6.63;3.00;;;3.40;99.90;;;;;;8296640;28;20037;-86
2024/03/27 06:12:16;;;;;;;5.18;2.70;;;3.50;99.90;;;;;;8306267;28;20509;-86
2024/03/27 06:16:16;;;;;;;9.88;4.85;;;3.60;99.90;;;;;;8304382;28;20017;-87
2024/03/27 06:20:17;;;;;;;8.02;3.60;;;3.80;99.90;;;;;;8315700;28;20034;-86
2024/03/27 06:24:18;;;;;;;3.85;2.35;;;4.10;99.90;;;;;;8299022;28;20452;-86
2024/03/27 06:28:18;;;;;;;5.20;2.70;;;4.40;99.90;;;;;;8293704;28;20364;-86
2024/03/27 06:32:19;;;;;;;5.60;3.30;;;5.00;99.90;;;;;;8295072;28;20026;-86
2024/03/27 06:36:19;;;;;;;4.25;2.65;;;4.70;99.90;;;;;;8294344;28;20486;-87
2024/03/27 06:40:20;;;;;;;6.93;2.92;;;4.80;99.90;;;;;;8300994;28;20021;-86
2024/03/27 06:44:21;;;;;;;7.03;3.25;;;5.30;99.90;;;;;;8310824;28;20105;-86
2024/03/27 06:48:21;;;;;;;5.95;3.33;;;6.00;99.90;;;;;;8289940;28;20052;-86
2024/03/27 06:52:22;;;;;;;5.30;3.30;;;5.90;99.90;;;;;;8290116;28;20041;-86
2024/03/27 06:56:22;;;;;;;11.98;4.35;;;5.80;99.90;;;;;;8291182;28;20498;-86
2024/03/27 07:00:23;;;;;;;6.32;4.05;;;5.80;99.90;;;;;;8289423;28;20049;-86
2024/03/27 07:04:25;;;;;;;7.07;4.28;;;5.70;99.90;;;;;;8293099;28;20026;-86
2024/03/27 07:08:26;;;;;;;11.98;4.72;;;5.80;99.90;;;;;;8297181;28;20045;-87
2024/03/27 07:12:26;;;;;;;6.35;3.65;;;5.90;99.90;;;;;;8287749;28;20026;-86
2024/03/27 07:16:27;;;;;;;7.65;4.15;;;6.20;99.90;;;;;;8290652;28;20030;-86
2024/03/27 07:20:27;;;;;;;9.40;4.85;;;6.20;99.90;;;;;;8288119;28;20495;-87
2024/03/27 07:24:28;;;;;;;11.80;4.78;;;6.60;99.90;;;;;;8310456;28;20040;-87
2024/03/27 07:28:29;;;;;;;6.35;3.75;;;6.90;99.90;;;;;;8291150;28;20026;-87
2024/03/27 07:32:29;;;;;;;8.05;4.18;;;6.70;99.90;;;;;;8293905;28;20454;-87
2024/03/27 07:36:30;;;;;;;10.82;4.32;;;7.00;99.90;;;;;;8295503;28;20077;-87
2024/03/27 07:40:30;;;;;;;7.57;4.32;;;7.30;99.90;;;;;;8293935;28;20025;-87
2024/03/27 07:44:32;;;;;;;7.57;3.88;;;7.70;99.90;;;;;;8295082;28;21657;-86
2024/03/27 07:48:34;;;;;;;5.30;3.53;;;7.70;99.90;;;;;;8289054;28;20026;-87
2024/03/27 07:52:34;;;;;;;5.57;3.50;;;8.10;99.90;;;;;;8288487;28;20025;-86
2024/03/27 07:56:35;;;;;;;6.60;3.90;;;8.30;99.90;;;;;;8315943;28;20026;-86
2024/03/27 08:00:35;;;;;;;5.28;2.65;;;8.20;99.90;;;;;;8296744;28;20046;-86
2024/03/27 08:04:36;;;;;;;7.85;3.92;;;8.40;99.90;;;;;;8306018;28;20036;-86
2024/03/27 08:08:36;;;;;;;4.75;3.22;;;8.50;99.90;;;;;;8315957;28;20548;-86
2024/03/27 08:12:37;;;;;;;7.30;3.53;;;8.70;99.90;;;;;;8300444;28;20383;-87
2024/03/27 08:16:37;;;;;;;7.18;3.35;;;9.10;99.90;;;;;;8309200;28;20022;-87
2024/03/27 08:20:38;;;;;;;6.57;3.38;;;9.10;99.90;;;;;;8297463;28;20034;-87
2024/03/27 08:24:39;;;;;;;6.18;3.63;;;9.50;99.90;;;;;;8301850;28;20029;-87
2024/03/27 08:28:40;;;;;;;6.00;3.80;;;10.10;99.90;;;;;;8324184;28;20034;-86
2024/03/27 08:32:41;;;;;;;7.25;3.08;;;10.30;99.90;;;;;;8301317;28;20398;-88
2024/03/27 08:36:41;;;;;;;5.00;3.38;;;10.40;99.90;;;;;;8307871;28;20025;-87
2024/03/27 08:40:49;;;;;;;5.95;3.15;;;10.40;99.90;;;;;;8296291;28;20013;-86
2024/03/27 08:44:49;;;;;;;3.97;3.22;;;10.50;99.90;;;;;;8311778;28;20026;-86
2024/03/27 08:48:50;;;;;;;7.43;3.80;;;10.80;99.90;;;;;;8297616;28;20029;-87
2024/03/27 08:52:51;;;;;;;5.57;3.83;;;10.70;99.90;;;;;;8317019;28;20685;-87
2024/03/27 08:56:51;;;;;;;5.93;3.88;;;11.20;99.90;;;;;;8299290;28;20029;-87
2024/03/27 09:00:52;;;;;;;5.97;4.03;;;11.60;99.90;;;;;;8314622;28;20056;-87
2024/03/27 09:04:52;;;;;;;5.43;3.47;;;11.80;99.90;;;;;;8297849;28;20046;-87
2024/03/27 09:08:53;;;;;;;6.93;4.10;;;12.20;99.90;;;;;;8313821;28;20036;-87
2024/03/27 09:12:54;;;;;;;6.28;3.17;;;12.60;99.90;;;;;;8301017;28;20037;-88
2024/03/27 09:16:55;;;;;;;4.63;3.15;;;12.90;99.90;;;;;;8303031;28;20022;-87
2024/03/27 09:21:03;;;;;;;3.65;2.55;;;13.80;99.90;;;;;;8299709;28;20041;-88
2024/03/27 09:25:04;;;;;;;4.75;2.67;;;15.00;99.90;;;;;;8314081;28;20061;-87
2024/03/27 09:29:05;;;;;;;8.00;2.63;;;15.60;99.90;;;;;;8317271;28;20556;-87
2024/03/27 09:33:05;;;;;;;2.25;1.80;;;15.90;99.90;;;;;;8317354;28;20076;-88
2024/03/27 09:37:06;;;;;;;3.20;2.17;;;16.10;99.90;;;;;;8294542;28;20446;-87
2024/03/27 09:41:08;;;;;;;3.47;1.80;;;16.50;99.90;;;;;;8293115;28;20057;-87
2024/03/27 09:45:10;;;;;;;2.67;1.92;;;16.70;99.90;;;;;;8298840;28;20030;-87
2024/03/27 09:49:24;;;;;;;;;;;17.00;99.90;;;;;;8463345;27;20687;-85
2024/03/27 09:53:24;;;;;;;4.18;1.95;;;17.00;99.90;;;;;;8469642;28;19972;-87
2024/03/27 09:57:25;;;;;;;3.17;2.00;;;17.60;99.90;;;;;;8472661;28;20028;-86
2024/03/27 10:01:25;;;;;;;3.42;1.90;;;18.20;99.90;;;;;;8468300;28;20020;-86
2024/03/27 10:05:27;;;;;;;3.05;1.77;;;18.20;99.90;;;;;;8454856;28;20023;-87
2024/03/27 10:09:28;;;;;;;3.25;2.08;;;17.90;99.90;;;;;;8459276;28;20028;-87
2024/03/27 10:13:28;;;;;;;2.60;1.92;;;17.60;99.90;;;;;;8462296;28;20020;-87
2024/03/27 10:17:29;;;;;;;4.95;1.90;;;18.10;99.90;;;;;;8453776;28;20027;-87
2024/03/27 10:21:29;;;;;;;2.55;1.80;;;18.40;99.90;;;;;;8462093;28;20027;-88
2024/03/27 10:25:31;;;;;;;3.67;2.40;;;18.60;99.90;;;;;;8450475;28;20024;-88
2024/03/27 10:29:31;;;;;;;3.22;2.45;;;18.70;99.90;;;;;;8454249;28;20020;-87
2024/03/27 10:33:32;;;;;;;4.57;2.35;;;18.10;99.90;;;;;;8469929;28;20023;-88
2024/03/27 10:37:33;;;;;;;5.95;2.95;;;18.80;99.90;;;;;;8474243;28;20024;-87
2024/03/27 10:41:34;;;;;;;4.70;2.60;;;19.80;99.90;;;;;;8465968;28;20050;-88
2024/03/27 10:45:38;;;;;;;3.95;2.50;;;19.50;99.90;;;;;;8464375;28;20027;-88
2024/03/27 10:49:41;;;;;;;4.13;3.10;;;19.10;99.90;;;;;;8447426;28;20039;-87
2024/03/27 10:53:41;;;;;;;4.28;3.38;;;20.00;99.90;;;;;;8461172;28;20045;-88
2024/03/27 10:57:43;;;;;;;4.72;2.75;;;21.40;99.90;;;;;;8462540;27;20070;-87
2024/03/27 11:01:43;;;;;;;3.13;2.72;;;20.70;99.90;;;;;;8435146;28;20055;-88
2024/03/27 11:05:46;;;;;;;3.75;2.67;;;20.40;99.90;;;;;;8422445;28;20458;-88
2024/03/27 11:09:56;;;;;;;3.25;2.75;;;21.20;99.90;;;;;;8424070;28;20024;-89
2024/03/27 11:13:57;;;;;;;6.18;3.10;;;20.80;99.90;;;;;;8419793;28;20024;-88
2024/03/27 11:17:58;;;;;;;2.78;2.42;;;20.90;99.90;;;;;;8438757;28;20036;-88
2024/03/27 11:22:17;;;;;;;2.53;1.67;;;20.50;99.90;;;;;;8445705;28;20114;-88
2024/03/27 11:26:30;;;;;;;1.83;1.42;;;19.20;99.90;;;;;;8428569;28;20020;-88
2024/03/27 11:30:37;;;;;;;2.63;1.73;;;19.10;99.90;;;;;;8435477;28;20023;-88
2024/03/27 11:34:38;;;;;;;5.50;2.03;;;19.80;99.90;;;;;;8436891;28;20020;-88
2024/03/27 11:38:39;;;;;;;1.33;1.23;;;20.20;99.90;;;;;;8430177;28;20036;-88
2024/03/27 11:42:39;;;;;;;2.13;1.55;;;21.80;99.90;;;;;;8433469;28;20023;-89
2024/03/27 11:46:40;;;;;;;3.42;2.00;;;21.70;99.90;;;;;;8444786;28;20032;-88
2024/03/27 11:50:41;;;;;;;2.90;1.35;;;20.90;99.90;;;;;;8449498;28;20035;-88
2024/03/27 11:54:42;;;;;;;2.10;1.40;;;21.70;99.00;;;;;;8464986;28;20049;-89
2024/03/27 11:58:43;;;;;;;1.95;1.60;;;22.60;98.80;;;;;;8471154;28;20024;-92
2024/03/27 12:02:43;;;;;;;1.63;1.38;;;22.00;97.60;;;;;;8440012;28;20101;-88
2024/03/27 12:06:44;;;;;;;1.92;1.00;;;22.10;97.20;;;;;;8451698;28;20023;-88
2024/03/27 12:10:46;;;;;;;2.83;1.55;;;21.20;99.00;;;;;;8442644;28;20039;-88
2024/03/27 12:14:46;;;;;;;2.97;1.33;;;21.60;97.90;;;;;;8433788;28;20058;-89
2024/03/27 12:18:47;;;;;;;1.65;1.00;;;23.30;95.10;;;;;;8429294;28;20033;-86
2024/03/27 12:22:48;;;;;;;1.67;1.30;;;22.90;94.00;;;;;;8432384;28;20061;-86
2024/03/27 12:26:49;;;;;;;2.95;1.77;;;23.70;94.00;;;;;;8450915;28;20023;-86
2024/03/27 12:30:49;;;;;;;4.03;1.73;;;22.70;96.60;;;;;;8442794;28;20411;-88
2024/03/27 12:34:51;;;;;;;2.33;1.65;;;21.40;98.30;;;;;;8443918;28;20026;-88
2024/03/27 12:38:51;;;;;;;2.08;1.58;;;20.50;99.30;;;;;;8435406;28;20073;-87
2024/03/27 12:42:52;;;;;;;2.72;1.88;;;20.10;99.40;;;;;;8440919;28;20484;-88
2024/03/27 12:46:52;;;;;;;5.18;2.15;;;19.50;97.80;;;;;;8431419;28;20033;-88
2024/03/27 12:50:54;;;;;;;4.10;2.50;;;19.30;99.90;;;;;;8426939;28;20031;-88
2024/03/27 12:54:56;;;;;;;4.85;2.25;;;18.70;99.90;;;;;;8436389;28;20507;-88
2024/03/27 12:58:57;;;;;;;3.67;2.60;;;18.60;99.90;;;;;;8454335;28;20032;-87
2024/03/27 13:02:57;;;;;;;2.30;1.52;;;18.00;99.90;;;;;;8426197;28;20040;-87
2024/03/27 13:06:58;;;;;;;1.58;1.45;;;17.20;99.90;;;;;;8442888;28;20027;-88
2024/03/27 13:10:58;;;;;;;4.32;2.08;;;16.70;99.90;;;;;;8438700;28;20373;-87
2024/03/27 13:14:59;;;;;;;3.17;2.13;;;16.40;99.90;;;;;;8439527;28;20020;-87
2024/03/27 13:19:00;;;;;;;4.88;2.83;;;16.00;99.90;;;;;;8425598;28;20028;-87
2024/03/27 13:23:01;;;;;;;3.30;2.40;;;15.70;99.90;;;;;;8422890;28;20081;-87
2024/03/27 13:27:01;;;;;;;2.35;1.80;;;15.20;99.90;;;;;;8427552;28;20073;-88
2024/03/27 13:31:04;;;;;;;4.10;2.63;;;15.10;99.90;;;;;;8433631;28;20021;-88
2024/03/27 13:35:05;;;;;;;4.65;2.80;;;14.70;99.90;;;;;;8432279;28;20483;-87
2024/03/27 13:39:06;;;;;;;2.95;1.75;;;14.60;99.90;;;;;;8428349;28;20097;-87
2024/03/27 13:43:07;;;;;;;1.77;1.17;;;14.40;99.90;;;;;;8430385;28;20031;-87
2024/03/27 13:47:08;;;;;;;2.42;1.90;;;14.10;99.90;;;;;;8438713;28;20035;-87
2024/03/27 13:51:08;;;;;;;2.47;1.95;;;13.80;99.90;;;;;;8426305;28;20046;-87
2024/03/27 13:55:09;;;;;;;5.03;2.13;;;13.30;99.90;;;;;;8431026;28;20036;-86
2024/03/27 13:59:09;;;;;;;3.08;2.50;;;12.60;99.90;;;;;;8434259;28;20036;-88
2024/03/27 14:03:10;;;;;;;2.85;1.75;;;12.20;99.90;;;;;;8440089;28;20112;-87
2024/03/27 14:07:11;;;;;;;5.93;2.38;;;11.90;99.90;;;;;;8427114;28;20020;-89
2024/03/27 14:11:11;;;;;;;3.20;2.20;;;11.60;99.90;;;;;;8438705;28;21049;-84
2024/03/27 14:15:12;;;;;;;3.70;2.75;;;11.30;99.90;;;;;;8424525;28;20039;-84
2024/03/27 14:19:12;;;;;;;3.53;2.80;;;11.10;99.90;;;;;;8419954;28;20028;-84
2024/03/27 14:23:13;;;;;;;4.65;2.92;;;10.90;99.90;;;;;;8434235;28;20024;-83
2024/03/27 14:27:14;;;;;;;4.47;2.95;;;10.80;99.90;;;;;;8432037;28;20038;-83
2024/03/27 14:31:14;;;;;;;5.72;3.08;;;10.70;99.90;;;;;;8425574;28;20397;-83
2024/03/27 14:35:15;;;;;;;5.70;3.33;;;10.70;99.90;;;;;;8439972;28;20112;-83
2024/03/27 14:39:16;;;;;;;2.55;1.75;;;10.50;99.90;;;;;;8438815;28;20050;-83
2024/03/27 14:43:16;;;;;;;1.85;1.38;;;10.30;99.90;;;;;;8434050;28;20020;-83
2024/03/27 14:47:17;;;;;;;2.58;1.27;;;10.00;99.90;;;;;;8456944;28;20039;-83
2024/03/27 14:51:18;;;;;;;2.58;1.30;;;9.70;99.90;;;;;;8435213;28;20445;-82
2024/03/27 14:55:18;;;;;;;1.60;1.13;;;9.40;99.90;;;;;;8441026;28;20036;-82
2024/03/27 14:59:19;;;;;;;1.30;0.85;;;9.10;99.90;;;;;;8442703;28;20020;-82
2024/03/27 15:03:19;;;;;;;1.75;1.20;;;8.90;99.90;;;;;;8436387;28;20116;-82
2024/03/27 15:07:20;;;;;;;1.20;0.90;;;8.70;99.90;;;;;;8447256;28;20023;-81
2024/03/27 15:11:20;;;;;;;1.65;1.05;;;8.60;99.90;;;;;;8429290;22;20078;-81
2024/03/27 15:15:21;;;;;;;2.05;1.27;;;8.50;99.90;;;;;;8366952;28;20024;-81
2024/03/27 15:19:22;;;;;;;1.30;1.10;;;8.20;99.90;;;;;;8366119;28;20025;-82
2024/03/27 15:23:22;;;;;;;2.20;0.80;;;8.10;99.90;;;;;;8366954;28;20040;-81
2024/03/27 15:27:23;;;;;;;0.93;0.45;;;7.90;99.90;;;;;;8367152;28;20033;-82
2024/03/27 15:31:23;;;;;;;1.42;0.80;;;7.70;99.90;;;;;;8370178;28;20025;-83
2024/03/27 15:35:24;;;;;;;1.30;0.90;;;7.60;99.90;;;;;;8367408;28;20143;-82
2024/03/27 15:39:24;;;;;;;0.70;0.60;;;7.40;99.90;;;;;;8374205;28;20032;-81
2024/03/27 15:43:25;;;;;;;1.27;0.80;;;7.30;99.90;;;;;;8362043;28;20035;-81
2024/03/27 15:47:25;;;;;;;1.45;0.80;;;7.30;99.90;;;;;;8361604;28;20033;-81
2024/03/27 15:51:27;;;;;;;1.15;0.70;;;7.30;99.90;;;;;;8366310;28;20055;-82
2024/03/27 15:55:27;;;;;;;0.47;0.45;;;7.20;99.90;;;;;;8366538;28;20048;-81
2024/03/27 15:59:28;;;;;;;0.70;0.60;;;7.00;99.90;;;;;;8367275;28;20028;-82
2024/03/27 16:03:29;;;;;;;10.52;4.68;;;6.90;99.90;;;;;;8371181;28;20024;-82
2024/03/27 16:07:29;;;;;;;2.67;1.33;;;6.70;99.90;;;;;;8367583;28;20021;-82
2024/03/27 16:11:30;;;;;;;5.38;2.45;;;6.60;99.90;;;;;;8363208;28;20399;-83
2024/03/27 16:15:34;;;;;;;0.88;0.60;;;6.50;99.90;;;;;;8372638;28;20024;-84
2024/03/27 16:19:35;;;;;;;1.00;0.65;;;6.50;99.90;;;;;;8368192;28;20021;-83
2024/03/27 16:23:35;;;;;;;3.13;0.73;;;6.60;99.90;;;;;;8365858;28;20025;-84
2024/03/27 16:27:36;;;;;;;0.43;0.40;;;6.50;99.90;;;;;;8371512;28;20040;-85
2024/03/27 16:31:36;;;;;;;0.40;0.30;;;6.60;99.90;;;;;;8371971;28;20017;-84
2024/03/27 16:35:37;;;;;;;1.25;0.90;;;6.60;99.90;;;;;;8360206;28;20032;-85
2024/03/27 16:39:37;;;;;;;0.60;0.52;;;6.50;99.90;;;;;;8364188;28;20059;-85
2024/03/27 16:43:38;;;;;;;1.20;0.65;;;6.40;99.90;;;;;;8365858;28;20106;-86
2024/03/27 16:47:38;;;;;;;0.70;0.70;;;6.40;99.90;;;;;;8361029;28;20493;-86
2024/03/27 16:51:39;;;;;;;1.38;0.80;;;6.40;99.90;;;;;;8366605;28;20024;-87
2024/03/27 16:55:39;;;;;;;0.90;0.77;;;6.20;99.90;;;;;;8380308;28;20052;-87
2024/03/27 16:59:40;;;;;;;1.35;0.70;;;6.10;99.90;;;;;;8403087;28;20049;-90
2024/03/27 17:03:40;;;;;;;1.27;0.65;;;6.00;99.90;;;;;;8406003;28;20033;-89
2024/03/27 17:07:41;;;;;;;1.42;0.68;;;6.00;99.90;;;;;;8393863;28;20497;-90
2024/03/27 17:11:42;;;;;;;0.60;0.55;;;6.20;99.90;;;;;;8370235;28;20033;-90
2024/03/27 17:15:42;;;;;;;0.52;0.43;;;6.00;99.90;;;;;;8374915;28;20033;-90
2024/03/27 17:19:43;;;;;;;0.82;0.70;;;6.00;99.90;;;;;;8364647;28;20508;-90
2024/03/27 17:23:47;;;;;;;0.98;0.60;;;5.90;99.90;;;;;;8360782;28;20065;-90
2024/03/27 17:27:48;;;;;;;1.73;1.38;;;5.90;99.90;;;;;;8369936;28;20108;-90
2024/03/27 17:31:50;;;;;;;0.77;0.77;;;5.90;99.90;;;;;;8364212;28;20017;-91
2024/03/27 17:35:51;;;;;;;1.52;0.77;;;5.80;99.90;;;;;;8369661;28;20025;-90
2024/03/27 17:39:52;;;;;;;2.13;0.68;;;5.70;99.90;;;;;;8368522;28;20465;-90
2024/03/27 17:43:52;;;;;;;1.20;0.60;;;5.70;99.90;;;;;;8365825;28;20021;-90
2024/03/27 17:47:53;;;;;;;1.13;0.70;;;5.70;99.90;;;;;;8371794;28;20052;-89
2024/03/27 17:52:05;;;;;;;0.40;0.30;;;5.70;99.90;;;;;;8373216;28;20021;-90
2024/03/27 17:56:06;;;;;;;0.70;0.70;;;5.70;99.90;;;;;;8384268;28;20033;-90
2024/03/27 18:00:25;;;;;;;1.00;0.63;;;5.80;99.90;;;;;;8369809;28;20063;-89
2024/03/27 18:04:26;;;;;;;2.65;0.80;;;5.80;99.90;;;;;;8372347;28;20029;-89
2024/03/27 18:08:27;;;;;;;0.70;0.63;;;5.80;99.90;;;;;;8366371;28;20034;-89
2024/03/27 18:12:28;;;;;;;2.92;2.08;;;5.70;99.90;;;;;;8380659;28;20036;-89
2024/03/27 18:16:34;;;;;;;0.70;0.65;;;5.70;99.90;;;;;;8377525;28;20028;-90
2024/03/27 18:20:34;;;;;;;1.25;1.15;;;5.60;99.90;;;;;;8379413;28;20070;-89
2024/03/27 18:24:35;;;;;;;0.60;0.60;;;5.70;99.90;;;;;;8381465;28;20029;-89
2024/03/27 18:28:36;;;;;;;1.65;0.90;;;5.60;99.90;;;;;;8390571;28;20028;-88
2024/03/27 18:33:00;;;;;;;1.10;1.00;;;5.80;99.90;;;;;;8383896;28;20027;-90
2024/03/27 18:37:03;;;;;;;1.30;0.98;;;5.80;99.90;;;;;;8365918;28;20033;-88
2024/03/27 18:41:06;;;;;;;0.95;0.80;;;5.80;99.90;;;;;;8375799;28;20041;-89
2024/03/27 18:45:19;;;;;;;1.00;0.80;;;5.80;99.90;;;;;;8392179;28;20033;-89
2024/03/27 18:49:41;;;;;;;;;;;;;;;;;;;;;
2024/03/27 18:54:06;;;;;;;3.92;1.17;;;5.40;99.90;;;;;;8382164;28;20036;-89
2024/03/27 18:58:58;;;;;;;1.92;1.00;;;5.40;99.90;;;;;;8373235;28;20721;-90
2024/03/27 19:03:54;;;;;;;1.15;1.02;;;5.60;99.90;;;;;;8380879;28;20063;-89
2024/03/27 19:13:24;;;;;;;0.65;0.57;;;5.50;99.90;;;;;;8403849;22;20048;-89
2024/03/27 19:18:07;;;;;;;0.63;0.60;;;5.60;99.90;;;;;;8415074;28;20064;-88
2024/03/27 19:22:13;;;;;;;1.13;0.70;;;5.60;99.90;;;;;;8361934;28;20031;-89
2024/03/27 19:26:27;;;;;;;0.63;0.63;;;5.50;99.90;;;;;;8385471;28;20067;-89
2024/03/27 19:30:50;;;;;;;0.90;0.70;;;5.40;99.90;;;;;;8411053;28;20061;-88
2024/03/27 19:34:56;;;;;;;0.80;0.63;;;5.40;99.90;;;;;;8417449;28;20070;-88
2024/03/27 19:38:59;;;;;;;0.77;0.65;;;5.30;99.90;;;;;;8405469;28;20035;-88
2024/03/27 19:43:00;;;;;;;0.68;0.50;;;5.20;99.90;;;;;;8400868;28;20055;-86
2024/03/27 19:47:21;;;;;;;0.77;0.52;;;5.10;99.90;;;;;;8404984;28;20029;-88
2024/03/27 19:51:27;;;;;;;1.58;0.88;;;5.00;99.90;;;;;;8419920;28;20032;-88
2024/03/27 19:55:38;;;;;;;0.65;0.60;;;5.00;99.90;;;;;;8413527;28;20035;-88
2024/03/27 20:00:08;;;;;;;0.85;0.75;;;5.00;99.90;;;;;;8396982;28;20044;-88
2024/03/27 20:04:09;;;;;;;1.25;0.90;;;5.00;99.90;;;;;;8387575;28;20033;-89
2024/03/27 20:08:15;;;;;;;1.35;0.98;;;4.90;99.90;;;;;;8423115;28;20027;-88
2024/03/27 20:12:18;;;;;;;1.40;1.00;;;4.90;99.90;;;;;;8415561;28;20025;-87
2024/03/27 20:16:22;;;;;;;2.05;1.25;;;4.90;99.90;;;;;;8404214;28;20033;-88
2024/03/27 20:20:26;;;;;;;1.40;1.08;;;4.90;99.90;;;;;;8408898;28;20029;-88
2024/03/27 20:24:30;;;;;;;2.20;1.42;;;4.80;99.90;;;;;;8424756;28;20028;-89
2024/03/27 20:28:40;;;;;;;2.40;1.25;;;4.90;99.90;;;;;;8408924;28;20121;-89
2024/03/27 20:32:52;;;;;;;1.23;1.05;;;4.80;99.90;;;;;;8398042;28;20538;-88
2024/03/27 20:37:00;;;;;;;2.92;1.60;;;4.80;99.90;;;;;;8417585;28;20066;-88
2024/03/27 20:41:04;;;;;;;1.08;0.95;;;4.80;99.90;;;;;;8420663;28;20062;-88
2024/03/27 20:45:16;;;;;;;2.33;1.33;;;4.90;99.90;;;;;;8415820;28;20500;-88
2024/03/27 20:49:22;;;;;;;1.05;0.80;;;5.00;99.90;;;;;;8416785;28;20032;-88
2024/03/27 20:53:28;;;;;;;2.50;1.38;;;4.90;99.90;;;;;;8421290;28;20506;-88
2024/03/27 20:57:32;;;;;;;2.65;1.45;;;4.90;99.90;;;;;;8427649;28;20032;-88
2024/03/27 21:01:33;;;;;;;2.15;1.58;;;4.90;99.90;;;;;;8401477;28;20032;-88
2024/03/27 21:05:34;;;;;;;2.00;1.52;;;4.80;99.90;;;;;;8408987;28;20028;-89
2024/03/27 21:09:50;;;;;;;1.70;1.48;;;4.80;99.90;;;;;;8419611;28;20404;-89
2024/03/27 21:13:50;;;;;;;3.20;1.52;;;4.80;99.90;;;;;;8407684;28;20024;-88
2024/03/27 21:17:51;;;;;;;2.50;1.20;;;4.70;99.90;;;;;;8404744;28;20062;-88
2024/03/27 21:21:52;;;;;;;3.05;1.75;;;4.90;99.90;;;;;;8406691;28;20020;-89